NCAR-RAP Real-Time Weather Data

Output produced by METARs form (01 December 2020  18:14 UTC)
found at http://weather.rap.ucar.edu/surface/
 
KCAK 011651Z 27017KT 2SM -SN BLSN OVC013 M02/M04 A2971 RMK AO2 PK WND 29027/1638 SLP071 VIS 1V3 P0001 T10171044
KCAK 011621Z 28016G23KT 2SM -SN BLSN BKN011 OVC024 M02/M04 A2971 RMK AO2 P0000 T10171044
KCAK 011551Z 27013KT 1 3/4SM -SN BLSN OVC010 M02/M04 A2971 RMK AO2 PK WND 27026/1501 TWR VIS 2 SLP072 P0001 T10171044
KCAK 011540Z 28013G21KT 1 1/2SM -SN BLSN OVC011 M02/M04 A2972 RMK AO2 PK WND 27026/1501 TWR VIS 2 VIS 1V2 P0001 T10221044
KCAK 011451Z 28014G23KT 2SM -SN BR OVC012 M02/M04 A2970 RMK AO2 SLP069 P0000 60002 T10221044 51016
KCAK 011351Z 29016G23KT 2SM -SN BR OVC012 M02/M04 A2969 RMK AO2 SLP065 VIS 1V3 P0001 T10221044
KCAK 011337Z 28017G24KT 1SM R23/P6000FT -SN BLSN OVC010 M02/M04 A2968 RMK AO2 TWR VIS 2 P0001 T10221044
KCAK 011251Z 28017G25KT 1SM R23/P6000FT -SN BLSN BKN008 OVC016 M02/M04 A2967 RMK AO2 SLP058 VIS 1/2V1 1/2 P0001 T10171044
KCAK 011151Z 28014KT 1SM R23/P6000FT -SN BLSN BKN009 OVC018 M01/M04 A2965 RMK AO2 SLP051 4/001 P0000 60007 70080 T10111039 10006 21011 53018
KCAK 011147Z 29014KT 2SM -SN BR SCT008 OVC013 M01/M04 A2965 RMK AO2 SFC VIS 3 4/001 P0000
KCAK 011051Z 30015KT 3SM -SN BR BKN011 OVC017 M01/M03 A2963 RMK AO2 PK WND 28027/1000 SFC VIS 5 SLP042 P0000 T10111033
KCAK 011029Z 30016G22KT 3SM -SN BR BKN009 OVC014 M01/M03 A2962 RMK AO2 PK WND 28027/1000 SFC VIS 3 P0000 T10111033
KCAK 010951Z 30017G25KT 3SM -SN BR BKN010 OVC015 M01/M03 A2961 RMK AO2 SLP036 P0002 T10061033
KCAK 010940Z COR 30016G24KT 3SM -SN BR BKN009 OVC014 M01/M03 A2960 RMK AO2 P0002 T10061028
KCAK 010851Z 29017G21KT 1SM R23/P6000FT -SN BR BKN007 OVC014 M01/M03 A2960 RMK AO2 TWR VIS 2 SLP032 P0001 60005 T10061028 53007
KCAK 010837Z 30015G24KT 2SM -SN BR BKN008 OVC012 M01/M02 A2960 RMK AO2 P0001 T10061022
KCAK 010751Z 30015G22KT 2SM -SN BR SCT006 OVC012 00/M02 A2959 RMK AO2 SLP029 P0002 T00001022
KCAK 010651Z 31016KT 1 1/4SM -SN BR OVC008 01/M02 A2957 RMK AO2 TWR VIS 2 SLP023 P0002 T00061017
KCAK 010551Z 31016KT 2SM -SN BR BKN007 OVC011 01/M02 A2958 RMK AO2 SLP024 P0001 60015 T00061017 10022 20006 58001
KCAK 010517Z 31014G20KT 2SM -SN BR BKN007 OVC010 01/M01 A2958 RMK AO2 P0001 T00111011
KCAK 010451Z 31012KT 1 1/4SM -SN BR BKN005 OVC011 01/M01 A2958 RMK AO2 TWR VIS 2 SLP025 P0003 T00111011 400720011
KCAK 010351Z 32013KT 1 1/2SM SN BR OVC006 01/M01 A2959 RMK AO2 TWR VIS 2 SLP027 P0004 T00111011